sensor_id;sensor_type;location;lat;lon;timestamp;P1;durP1;ratioP1;P2;durP2;ratioP2
48823;SDS011;34640;53.590;10.054;2022-12-18T00:00:44;27.63;;;13.87;;
48823;SDS011;34640;53.590;10.054;2022-12-18T00:03:19;37.33;;;15.50;;
48823;SDS011;34640;53.590;10.054;2022-12-18T00:05:52;34.57;;;14.87;;
48823;SDS011;34640;53.590;10.054;2022-12-18T00:08:26;37.60;;;15.67;;
48823;SDS011;34640;53.590;10.054;2022-12-18T00:11:04;33.93;;;14.97;;
48823;SDS011;34640;53.590;10.054;2022-12-18T00:13:39;38.10;;;15.68;;
48823;SDS011;34640;53.590;10.054;2022-12-18T00:16:14;33.10;;;14.60;;
48823;SDS011;34640;53.590;10.054;2022-12-18T00:18:51;35.30;;;14.47;;
48823;SDS011;34640;53.590;10.054;2022-12-18T00:21:29;35.60;;;14.47;;
48823;SDS011;34640;53.590;10.054;2022-12-18T00:24:05;31.43;;;13.27;;
48823;SDS011;34640;53.590;10.054;2022-12-18T00:26:40;31.63;;;13.33;;
48823;SDS011;34640;53.590;10.054;2022-12-18T00:29:14;28.30;;;13.37;;
48823;SDS011;34640;53.590;10.054;2022-12-18T00:31:48;34.00;;;14.13;;
48823;SDS011;34640;53.590;10.054;2022-12-18T00:34:22;32.97;;;14.30;;
48823;SDS011;34640;53.590;10.054;2022-12-18T00:36:56;35.90;;;14.87;;
48823;SDS011;34640;53.590;10.054;2022-12-18T00:39:29;33.67;;;14.63;;
48823;SDS011;34640;53.590;10.054;2022-12-18T00:42:05;41.17;;;15.10;;
48823;SDS011;34640;53.590;10.054;2022-12-18T00:44:56;35.17;;;14.57;;
48823;SDS011;34640;53.590;10.054;2022-12-18T00:47:29;34.47;;;14.27;;
48823;SDS011;34640;53.590;10.054;2022-12-18T00:50:04;31.90;;;12.70;;
48823;SDS011;34640;53.590;10.054;2022-12-18T00:52:41;30.37;;;13.27;;
48823;SDS011;34640;53.590;10.054;2022-12-18T00:55:16;26.93;;;13.10;;
48823;SDS011;34640;53.590;10.054;2022-12-18T00:57:51;31.17;;;14.20;;
48823;SDS011;34640;53.590;10.054;2022-12-18T01:00:25;32.37;;;13.43;;
48823;SDS011;34640;53.590;10.054;2022-12-18T01:02:59;31.80;;;12.73;;
48823;SDS011;34640;53.590;10.054;2022-12-18T01:05:33;30.30;;;12.40;;
48823;SDS011;34640;53.590;10.054;2022-12-18T01:08:07;30.47;;;12.30;;
48823;SDS011;34640;53.590;10.054;2022-12-18T01:10:41;30.47;;;13.17;;
48823;SDS011;34640;53.590;10.054;2022-12-18T01:13:16;26.90;;;12.53;;
48823;SDS011;34640;53.590;10.054;2022-12-18T01:15:49;31.17;;;13.67;;
48823;SDS011;34640;53.590;10.054;2022-12-18T01:18:23;29.10;;;13.20;;
48823;SDS011;34640;53.590;10.054;2022-12-18T01:20:57;32.07;;;12.80;;
48823;SDS011;34640;53.590;10.054;2022-12-18T01:23:31;26.20;;;11.97;;
48823;SDS011;34640;53.590;10.054;2022-12-18T01:26:05;29.30;;;12.70;;
48823;SDS011;34640;53.590;10.054;2022-12-18T01:28:41;27.67;;;11.70;;
48823;SDS011;34640;53.590;10.054;2022-12-18T01:31:17;33.20;;;13.03;;
48823;SDS011;34640;53.590;10.054;2022-12-18T01:33:52;26.97;;;13.13;;
48823;SDS011;34640;53.590;10.054;2022-12-18T01:36:26;27.97;;;12.17;;
48823;SDS011;34640;53.590;10.054;2022-12-18T01:39:02;30.23;;;11.77;;
48823;SDS011;34640;53.590;10.054;2022-12-18T01:41:38;31.07;;;12.97;;
48823;SDS011;34640;53.590;10.054;2022-12-18T01:47:41;31.53;;;11.77;;
48823;SDS011;34640;53.590;10.054;2022-12-18T01:50:18;26.75;;;11.18;;
48823;SDS011;34640;53.590;10.054;2022-12-18T01:52:55;31.63;;;12.70;;
48823;SDS011;34640;53.590;10.054;2022-12-18T01:55:38;30.35;;;12.40;;
48823;SDS011;34640;53.590;10.054;2022-12-18T01:58:16;27.03;;;12.33;;
48823;SDS011;34640;53.590;10.054;2022-12-18T02:00:53;27.60;;;12.17;;
48823;SDS011;34640;53.590;10.054;2022-12-18T02:03:28;32.90;;;13.53;;
48823;SDS011;34640;53.590;10.054;2022-12-18T02:06:06;28.30;;;11.93;;
48823;SDS011;34640;53.590;10.054;2022-12-18T02:08:53;30.10;;;11.77;;
48823;SDS011;34640;53.590;10.054;2022-12-18T02:11:40;24.70;;;11.03;;
48823;SDS011;34640;53.590;10.054;2022-12-18T02:14:23;33.03;;;11.87;;
48823;SDS011;34640;53.590;10.054;2022-12-18T02:17:06;28.63;;;11.33;;
48823;SDS011;34640;53.590;10.054;2022-12-18T02:19:55;27.23;;;11.17;;
48823;SDS011;34640;53.590;10.054;2022-12-18T02:22:40;25.07;;;10.70;;
48823;SDS011;34640;53.590;10.054;2022-12-18T02:25:32;25.50;;;11.13;;
48823;SDS011;34640;53.590;10.054;2022-12-18T02:28:28;22.80;;;10.07;;
48823;SDS011;34640;53.590;10.054;2022-12-18T02:31:06;25.17;;;12.00;;
48823;SDS011;34640;53.590;10.054;2022-12-18T02:33:44;23.33;;;10.97;;
48823;SDS011;34640;53.590;10.054;2022-12-18T02:36:20;26.80;;;11.20;;
48823;SDS011;34640;53.590;10.054;2022-12-18T02:38:56;24.67;;;10.77;;
48823;SDS011;34640;53.590;10.054;2022-12-18T02:41:34;25.03;;;11.17;;
48823;SDS011;34640;53.590;10.054;2022-12-18T02:44:11;25.67;;;11.00;;
48823;SDS011;34640;53.590;10.054;2022-12-18T02:46:49;21.60;;;9.50;;
48823;SDS011;34640;53.590;10.054;2022-12-18T02:49:27;28.33;;;11.13;;
48823;SDS011;34640;53.590;10.054;2022-12-18T02:52:12;25.40;;;10.80;;
48823;SDS011;34640;53.590;10.054;2022-12-18T02:54:55;30.23;;;11.27;;
48823;SDS011;34640;53.590;10.054;2022-12-18T02:57:39;26.93;;;10.40;;
48823;SDS011;34640;53.590;10.054;2022-12-18T03:00:17;30.10;;;11.73;;
48823;SDS011;34640;53.590;10.054;2022-12-18T03:02:56;30.43;;;11.00;;
48823;SDS011;34640;53.590;10.054;2022-12-18T03:05:44;23.93;;;9.93;;
48823;SDS011;34640;53.590;10.054;2022-12-18T03:08:26;27.83;;;9.97;;
48823;SDS011;34640;53.590;10.054;2022-12-18T03:11:03;25.77;;;10.10;;
48823;SDS011;34640;53.590;10.054;2022-12-18T03:13:44;21.35;;;10.52;;
48823;SDS011;34640;53.590;10.054;2022-12-18T03:16:22;21.67;;;9.80;;
48823;SDS011;34640;53.590;10.054;2022-12-18T03:19:01;25.80;;;10.85;;
48823;SDS011;34640;53.590;10.054;2022-12-18T03:21:38;22.85;;;9.68;;
48823;SDS011;34640;53.590;10.054;2022-12-18T03:24:16;24.60;;;10.23;;
48823;SDS011;34640;53.590;10.054;2022-12-18T03:26:53;21.33;;;9.97;;
48823;SDS011;34640;53.590;10.054;2022-12-18T03:29:33;21.47;;;9.90;;
48823;SDS011;34640;53.590;10.054;2022-12-18T03:32:11;17.57;;;8.90;;
48823;SDS011;34640;53.590;10.054;2022-12-18T03:34:49;22.60;;;10.50;;
48823;SDS011;34640;53.590;10.054;2022-12-18T03:37:26;23.20;;;10.03;;
48823;SDS011;34640;53.590;10.054;2022-12-18T03:40:04;21.10;;;8.00;;
48823;SDS011;34640;53.590;10.054;2022-12-18T03:42:42;23.33;;;9.33;;
48823;SDS011;34640;53.590;10.054;2022-12-18T03:45:23;26.13;;;9.47;;
48823;SDS011;34640;53.590;10.054;2022-12-18T03:48:07;28.87;;;10.67;;
48823;SDS011;34640;53.590;10.054;2022-12-18T03:50:48;24.67;;;10.20;;
48823;SDS011;34640;53.590;10.054;2022-12-18T03:53:29;20.70;;;9.73;;
48823;SDS011;34640;53.590;10.054;2022-12-18T03:56:10;22.13;;;10.37;;
48823;SDS011;34640;53.590;10.054;2022-12-18T03:58:47;26.13;;;9.77;;
48823;SDS011;34640;53.590;10.054;2022-12-18T04:01:25;24.10;;;9.63;;
48823;SDS011;34640;53.590;10.054;2022-12-18T04:04:05;22.67;;;10.43;;
48823;SDS011;34640;53.590;10.054;2022-12-18T04:06:41;26.80;;;10.47;;
48823;SDS011;34640;53.590;10.054;2022-12-18T04:09:17;22.00;;;9.20;;
48823;SDS011;34640;53.590;10.054;2022-12-18T04:11:51;19.40;;;9.57;;
48823;SDS011;34640;53.590;10.054;2022-12-18T04:14:25;20.97;;;8.77;;
48823;SDS011;34640;53.590;10.054;2022-12-18T04:17:00;22.33;;;10.20;;
48823;SDS011;34640;53.590;10.054;2022-12-18T04:19:34;19.97;;;9.73;;
48823;SDS011;34640;53.590;10.054;2022-12-18T04:22:08;23.30;;;9.20;;
48823;SDS011;34640;53.590;10.054;2022-12-18T04:24:43;27.90;;;10.17;;
48823;SDS011;34640;53.590;10.054;2022-12-18T04:27:17;23.87;;;9.73;;
48823;SDS011;34640;53.590;10.054;2022-12-18T04:29:50;22.57;;;9.17;;
48823;SDS011;34640;53.590;10.054;2022-12-18T04:32:26;27.07;;;9.90;;
48823;SDS011;34640;53.590;10.054;2022-12-18T04:34:59;24.90;;;9.53;;
48823;SDS011;34640;53.590;10.054;2022-12-18T04:37:33;26.17;;;10.17;;
48823;SDS011;34640;53.590;10.054;2022-12-18T04:40:08;21.20;;;9.80;;
48823;SDS011;34640;53.590;10.054;2022-12-18T04:42:42;29.47;;;9.87;;
48823;SDS011;34640;53.590;10.054;2022-12-18T04:45:16;24.80;;;9.70;;
48823;SDS011;34640;53.590;10.054;2022-12-18T04:47:51;16.83;;;8.77;;
48823;SDS011;34640;53.590;10.054;2022-12-18T04:50:24;22.03;;;9.73;;
48823;SDS011;34640;53.590;10.054;2022-12-18T04:52:59;24.33;;;11.07;;
48823;SDS011;34640;53.590;10.054;2022-12-18T04:55:32;21.73;;;9.20;;
48823;SDS011;34640;53.590;10.054;2022-12-18T04:58:06;19.90;;;9.47;;
48823;SDS011;34640;53.590;10.054;2022-12-18T05:00:40;19.57;;;8.90;;
48823;SDS011;34640;53.590;10.054;2022-12-18T05:03:15;24.50;;;9.37;;
48823;SDS011;34640;53.590;10.054;2022-12-18T05:05:49;22.53;;;10.27;;
48823;SDS011;34640;53.590;10.054;2022-12-18T05:08:23;25.67;;;9.20;;
48823;SDS011;34640;53.590;10.054;2022-12-18T05:10:58;19.83;;;9.43;;
48823;SDS011;34640;53.590;10.054;2022-12-18T05:13:33;23.53;;;8.53;;
48823;SDS011;34640;53.590;10.054;2022-12-18T05:16:09;26.50;;;10.07;;
48823;SDS011;34640;53.590;10.054;2022-12-18T05:18:44;27.53;;;9.63;;
48823;SDS011;34640;53.590;10.054;2022-12-18T05:21:18;21.60;;;10.33;;
48823;SDS011;34640;53.590;10.054;2022-12-18T05:23:52;24.33;;;9.80;;
48823;SDS011;34640;53.590;10.054;2022-12-18T05:26:25;22.40;;;9.87;;
48823;SDS011;34640;53.590;10.054;2022-12-18T05:28:59;21.33;;;9.60;;
48823;SDS011;34640;53.590;10.054;2022-12-18T05:31:33;25.07;;;10.37;;
48823;SDS011;34640;53.590;10.054;2022-12-18T05:34:12;25.73;;;9.18;;
48823;SDS011;34640;53.590;10.054;2022-12-18T05:36:46;30.83;;;10.40;;
48823;SDS011;34640;53.590;10.054;2022-12-18T05:39:20;22.33;;;9.90;;
48823;SDS011;34640;53.590;10.054;2022-12-18T05:41:53;25.50;;;9.93;;
48823;SDS011;34640;53.590;10.054;2022-12-18T05:44:27;23.37;;;10.17;;
48823;SDS011;34640;53.590;10.054;2022-12-18T05:47:01;21.63;;;10.27;;
48823;SDS011;34640;53.590;10.054;2022-12-18T05:49:36;24.80;;;10.40;;
48823;SDS011;34640;53.590;10.054;2022-12-18T05:52:10;30.87;;;10.10;;
48823;SDS011;34640;53.590;10.054;2022-12-18T05:54:44;21.70;;;9.07;;
48823;SDS011;34640;53.590;10.054;2022-12-18T05:57:17;25.33;;;9.53;;
48823;SDS011;34640;53.590;10.054;2022-12-18T05:59:51;20.80;;;10.03;;
48823;SDS011;34640;53.590;10.054;2022-12-18T06:02:25;21.27;;;9.67;;
48823;SDS011;34640;53.590;10.054;2022-12-18T06:05:01;25.10;;;10.40;;
48823;SDS011;34640;53.590;10.054;2022-12-18T06:07:34;30.77;;;11.50;;
48823;SDS011;34640;53.590;10.054;2022-12-18T06:10:08;25.50;;;11.33;;
48823;SDS011;34640;53.590;10.054;2022-12-18T06:12:43;28.73;;;11.00;;
48823;SDS011;34640;53.590;10.054;2022-12-18T06:15:19;25.07;;;10.90;;
48823;SDS011;34640;53.590;10.054;2022-12-18T06:17:53;22.73;;;10.17;;
48823;SDS011;34640;53.590;10.054;2022-12-18T06:20:32;24.80;;;11.07;;
48823;SDS011;34640;53.590;10.054;2022-12-18T06:23:08;22.67;;;11.23;;
48823;SDS011;34640;53.590;10.054;2022-12-18T06:25:42;23.60;;;9.77;;
48823;SDS011;34640;53.590;10.054;2022-12-18T06:28:16;30.63;;;11.77;;
48823;SDS011;34640;53.590;10.054;2022-12-18T06:30:50;27.87;;;10.60;;
48823;SDS011;34640;53.590;10.054;2022-12-18T06:33:25;26.63;;;11.83;;
48823;SDS011;34640;53.590;10.054;2022-12-18T06:36:02;27.20;;;10.83;;
48823;SDS011;34640;53.590;10.054;2022-12-18T06:38:37;23.57;;;11.03;;
48823;SDS011;34640;53.590;10.054;2022-12-18T06:41:13;29.40;;;11.90;;
48823;SDS011;34640;53.590;10.054;2022-12-18T06:43:48;28.97;;;11.23;;
48823;SDS011;34640;53.590;10.054;2022-12-18T06:46:26;23.20;;;10.88;;
48823;SDS011;34640;53.590;10.054;2022-12-18T06:49:00;31.67;;;10.60;;
48823;SDS011;34640;53.590;10.054;2022-12-18T06:51:35;25.80;;;11.87;;
48823;SDS011;34640;53.590;10.054;2022-12-18T06:54:09;24.23;;;10.97;;
48823;SDS011;34640;53.590;10.054;2022-12-18T06:56:44;23.07;;;10.30;;
48823;SDS011;34640;53.590;10.054;2022-12-18T06:59:18;27.60;;;12.33;;
48823;SDS011;34640;53.590;10.054;2022-12-18T07:01:52;30.70;;;12.17;;
48823;SDS011;34640;53.590;10.054;2022-12-18T07:04:27;27.53;;;12.00;;
48823;SDS011;34640;53.590;10.054;2022-12-18T07:07:03;25.30;;;10.30;;
48823;SDS011;34640;53.590;10.054;2022-12-18T07:09:36;23.70;;;10.80;;
48823;SDS011;34640;53.590;10.054;2022-12-18T07:12:10;27.53;;;11.37;;
48823;SDS011;34640;53.590;10.054;2022-12-18T07:14:44;32.63;;;11.70;;
48823;SDS011;34640;53.590;10.054;2022-12-18T07:17:18;26.60;;;11.63;;
48823;SDS011;34640;53.590;10.054;2022-12-18T07:19:52;27.73;;;10.97;;
48823;SDS011;34640;53.590;10.054;2022-12-18T07:22:27;25.63;;;12.30;;
48823;SDS011;34640;53.590;10.054;2022-12-18T07:25:01;27.97;;;11.90;;
48823;SDS011;34640;53.590;10.054;2022-12-18T07:27:35;26.47;;;11.63;;
48823;SDS011;34640;53.590;10.054;2022-12-18T07:30:09;27.93;;;12.00;;
48823;SDS011;34640;53.590;10.054;2022-12-18T07:32:44;29.60;;;11.00;;
48823;SDS011;34640;53.590;10.054;2022-12-18T07:35:17;26.27;;;11.73;;
48823;SDS011;34640;53.590;10.054;2022-12-18T07:37:57;27.47;;;12.20;;
48823;SDS011;34640;53.590;10.054;2022-12-18T07:40:31;27.67;;;11.30;;
48823;SDS011;34640;53.590;10.054;2022-12-18T07:43:05;26.30;;;12.10;;
48823;SDS011;34640;53.590;10.054;2022-12-18T07:45:39;27.13;;;10.70;;
48823;SDS011;34640;53.590;10.054;2022-12-18T07:48:13;25.97;;;11.87;;
48823;SDS011;34640;53.590;10.054;2022-12-18T07:50:46;29.80;;;11.87;;
48823;SDS011;34640;53.590;10.054;2022-12-18T07:53:22;23.80;;;11.50;;
48823;SDS011;34640;53.590;10.054;2022-12-18T07:55:56;32.30;;;12.53;;
48823;SDS011;34640;53.590;10.054;2022-12-18T07:58:50;25.17;;;10.67;;
48823;SDS011;34640;53.590;10.054;2022-12-18T08:01:24;36.70;;;14.20;;
48823;SDS011;34640;53.590;10.054;2022-12-18T08:03:58;35.90;;;12.37;;
48823;SDS011;34640;53.590;10.054;2022-12-18T08:06:32;30.07;;;11.97;;
48823;SDS011;34640;53.590;10.054;2022-12-18T08:09:07;27.80;;;12.43;;
48823;SDS011;34640;53.590;10.054;2022-12-18T08:11:43;35.80;;;13.80;;
48823;SDS011;34640;53.590;10.054;2022-12-18T08:14:17;30.60;;;11.93;;
48823;SDS011;34640;53.590;10.054;2022-12-18T08:16:50;25.30;;;12.03;;
48823;SDS011;34640;53.590;10.054;2022-12-18T08:19:25;30.73;;;12.67;;
48823;SDS011;34640;53.590;10.054;2022-12-18T08:21:58;38.97;;;13.77;;
48823;SDS011;34640;53.590;10.054;2022-12-18T08:24:34;28.20;;;11.97;;
48823;SDS011;34640;53.590;10.054;2022-12-18T08:27:07;32.83;;;12.47;;
48823;SDS011;34640;53.590;10.054;2022-12-18T08:30:01;29.73;;;12.07;;
48823;SDS011;34640;53.590;10.054;2022-12-18T08:32:35;31.67;;;13.77;;
48823;SDS011;34640;53.590;10.054;2022-12-18T08:35:10;33.97;;;12.47;;
48823;SDS011;34640;53.590;10.054;2022-12-18T08:37:49;28.30;;;11.17;;
48823;SDS011;34640;53.590;10.054;2022-12-18T08:40:25;28.47;;;12.67;;
48823;SDS011;34640;53.590;10.054;2022-12-18T08:43:00;31.23;;;12.57;;
48823;SDS011;34640;53.590;10.054;2022-12-18T08:45:51;29.80;;;12.10;;
48823;SDS011;34640;53.590;10.054;2022-12-18T08:48:25;31.63;;;11.93;;
48823;SDS011;34640;53.590;10.054;2022-12-18T08:50:59;33.97;;;12.67;;
48823;SDS011;34640;53.590;10.054;2022-12-18T08:53:33;32.37;;;12.40;;
48823;SDS011;34640;53.590;10.054;2022-12-18T08:56:08;31.17;;;13.20;;
48823;SDS011;34640;53.590;10.054;2022-12-18T08:58:42;26.30;;;12.90;;
48823;SDS011;34640;53.590;10.054;2022-12-18T09:01:16;30.77;;;12.57;;
48823;SDS011;34640;53.590;10.054;2022-12-18T09:03:50;28.43;;;11.97;;
48823;SDS011;34640;53.590;10.054;2022-12-18T09:06:24;30.27;;;12.67;;
48823;SDS011;34640;53.590;10.054;2022-12-18T09:08:58;37.70;;;12.90;;
48823;SDS011;34640;53.590;10.054;2022-12-18T09:11:34;34.47;;;12.00;;
48823;SDS011;34640;53.590;10.054;2022-12-18T09:14:08;35.27;;;12.67;;
48823;SDS011;34640;53.590;10.054;2022-12-18T09:16:43;26.23;;;11.40;;
48823;SDS011;34640;53.590;10.054;2022-12-18T09:19:16;29.17;;;12.27;;
48823;SDS011;34640;53.590;10.054;2022-12-18T09:21:50;35.87;;;11.87;;
48823;SDS011;34640;53.590;10.054;2022-12-18T09:24:24;30.83;;;12.00;;
48823;SDS011;34640;53.590;10.054;2022-12-18T09:26:59;29.77;;;12.50;;
48823;SDS011;34640;53.590;10.054;2022-12-18T09:29:33;28.63;;;11.13;;
48823;SDS011;34640;53.590;10.054;2022-12-18T09:32:07;28.00;;;11.63;;
48823;SDS011;34640;53.590;10.054;2022-12-18T09:34:41;29.27;;;11.90;;
48823;SDS011;34640;53.590;10.054;2022-12-18T09:37:15;29.33;;;11.87;;
48823;SDS011;34640;53.590;10.054;2022-12-18T09:39:48;32.53;;;12.17;;
48823;SDS011;34640;53.590;10.054;2022-12-18T09:42:23;31.70;;;12.67;;
48823;SDS011;34640;53.590;10.054;2022-12-18T09:44:57;24.57;;;11.20;;
48823;SDS011;34640;53.590;10.054;2022-12-18T09:47:33;24.13;;;11.47;;
48823;SDS011;34640;53.590;10.054;2022-12-18T09:50:18;21.05;;;9.77;;
48823;SDS011;34640;53.590;10.054;2022-12-18T09:52:57;28.90;;;12.47;;
48823;SDS011;34640;53.590;10.054;2022-12-18T09:55:36;28.83;;;12.00;;
48823;SDS011;34640;53.590;10.054;2022-12-18T09:58:16;26.90;;;11.27;;
48823;SDS011;34640;53.590;10.054;2022-12-18T10:00:53;27.63;;;12.17;;
48823;SDS011;34640;53.590;10.054;2022-12-18T10:03:28;30.57;;;11.87;;
48823;SDS011;34640;53.590;10.054;2022-12-18T10:06:04;26.73;;;11.67;;
48823;SDS011;34640;53.590;10.054;2022-12-18T10:08:45;26.97;;;12.03;;
48823;SDS011;34640;53.590;10.054;2022-12-18T10:11:31;30.70;;;13.03;;
48823;SDS011;34640;53.590;10.054;2022-12-18T10:14:15;31.85;;;12.77;;
48823;SDS011;34640;53.590;10.054;2022-12-18T10:16:58;27.23;;;11.30;;
48823;SDS011;34640;53.590;10.054;2022-12-18T10:19:42;25.83;;;11.93;;
48823;SDS011;34640;53.590;10.054;2022-12-18T10:22:26;31.27;;;12.63;;
48823;SDS011;34640;53.590;10.054;2022-12-18T10:25:18;30.93;;;12.77;;
48823;SDS011;34640;53.590;10.054;2022-12-18T10:27:57;28.37;;;11.77;;
48823;SDS011;34640;53.590;10.054;2022-12-18T10:30:38;36.10;;;12.17;;
48823;SDS011;34640;53.590;10.054;2022-12-18T10:33:13;27.90;;;11.50;;
48823;SDS011;34640;53.590;10.054;2022-12-18T10:35:50;25.53;;;11.53;;
48823;SDS011;34640;53.590;10.054;2022-12-18T10:38:25;28.57;;;12.07;;
48823;SDS011;34640;53.590;10.054;2022-12-18T10:41:01;22.80;;;11.07;;
48823;SDS011;34640;53.590;10.054;2022-12-18T10:43:37;27.77;;;11.93;;
48823;SDS011;34640;53.590;10.054;2022-12-18T10:46:14;27.17;;;11.50;;
48823;SDS011;34640;53.590;10.054;2022-12-18T10:48:52;29.25;;;11.80;;
48823;SDS011;34640;53.590;10.054;2022-12-18T10:51:28;28.70;;;12.13;;
48823;SDS011;34640;53.590;10.054;2022-12-18T10:54:03;28.13;;;11.87;;
48823;SDS011;34640;53.590;10.054;2022-12-18T10:56:39;28.33;;;10.73;;
48823;SDS011;34640;53.590;10.054;2022-12-18T10:59:15;23.30;;;11.23;;
48823;SDS011;34640;53.590;10.054;2022-12-18T11:01:52;30.83;;;12.37;;
48823;SDS011;34640;53.590;10.054;2022-12-18T11:04:29;25.88;;;11.63;;
48823;SDS011;34640;53.590;10.054;2022-12-18T11:07:04;28.93;;;11.90;;
48823;SDS011;34640;53.590;10.054;2022-12-18T11:09:39;25.23;;;11.30;;
48823;SDS011;34640;53.590;10.054;2022-12-18T11:12:15;31.80;;;12.33;;
48823;SDS011;34640;53.590;10.054;2022-12-18T11:14:50;29.63;;;12.77;;
48823;SDS011;34640;53.590;10.054;2022-12-18T11:17:29;28.90;;;12.87;;
48823;SDS011;34640;53.590;10.054;2022-12-18T11:20:06;33.63;;;12.73;;
48823;SDS011;34640;53.590;10.054;2022-12-18T11:22:55;31.67;;;11.80;;
48823;SDS011;34640;53.590;10.054;2022-12-18T11:25:31;27.85;;;12.07;;
48823;SDS011;34640;53.590;10.054;2022-12-18T11:28:25;30.40;;;12.07;;
48823;SDS011;34640;53.590;10.054;2022-12-18T11:31:18;28.93;;;10.97;;
48823;SDS011;34640;53.590;10.054;2022-12-18T11:34:00;27.97;;;10.70;;
48823;SDS011;34640;53.590;10.054;2022-12-18T11:36:59;26.30;;;11.33;;
48823;SDS011;34640;53.590;10.054;2022-12-18T11:39:36;26.73;;;11.50;;
48823;SDS011;34640;53.590;10.054;2022-12-18T11:42:12;28.90;;;11.97;;
48823;SDS011;34640;53.590;10.054;2022-12-18T11:44:51;27.67;;;11.90;;
48823;SDS011;34640;53.590;10.054;2022-12-18T11:47:31;30.33;;;12.53;;
48823;SDS011;34640;53.590;10.054;2022-12-18T11:50:16;33.40;;;12.10;;
48823;SDS011;34640;53.590;10.054;2022-12-18T11:52:52;24.07;;;11.50;;
48823;SDS011;34640;53.590;10.054;2022-12-18T11:55:39;30.97;;;12.80;;
48823;SDS011;34640;53.590;10.054;2022-12-18T11:58:23;30.80;;;13.10;;
48823;SDS011;34640;53.590;10.054;2022-12-18T12:01:09;30.87;;;13.17;;
48823;SDS011;34640;53.590;10.054;2022-12-18T12:03:57;26.37;;;11.50;;
48823;SDS011;34640;53.590;10.054;2022-12-18T12:06:45;27.70;;;12.03;;
48823;SDS011;34640;53.590;10.054;2022-12-18T12:09:32;32.20;;;11.73;;
48823;SDS011;34640;53.590;10.054;2022-12-18T12:12:16;27.80;;;12.07;;
48823;SDS011;34640;53.590;10.054;2022-12-18T12:15:02;27.10;;;11.13;;
48823;SDS011;34640;53.590;10.054;2022-12-18T12:17:45;25.07;;;10.77;;
48823;SDS011;34640;53.590;10.054;2022-12-18T12:20:27;30.20;;;11.73;;
48823;SDS011;34640;53.590;10.054;2022-12-18T12:23:13;24.10;;;11.13;;
48823;SDS011;34640;53.590;10.054;2022-12-18T12:25:59;30.83;;;11.23;;
48823;SDS011;34640;53.590;10.054;2022-12-18T12:28:44;30.13;;;10.90;;
48823;SDS011;34640;53.590;10.054;2022-12-18T12:31:31;24.57;;;10.97;;
48823;SDS011;34640;53.590;10.054;2022-12-18T12:34:15;27.27;;;11.20;;
48823;SDS011;34640;53.590;10.054;2022-12-18T12:36:55;25.77;;;10.73;;
48823;SDS011;34640;53.590;10.054;2022-12-18T12:39:42;25.55;;;10.45;;
48823;SDS011;34640;53.590;10.054;2022-12-18T12:42:18;28.00;;;11.25;;
48823;SDS011;34640;53.590;10.054;2022-12-18T12:45:16;28.70;;;11.67;;
48823;SDS011;34640;53.590;10.054;2022-12-18T12:47:55;26.77;;;11.37;;
48823;SDS011;34640;53.590;10.054;2022-12-18T12:50:32;25.87;;;11.37;;
48823;SDS011;34640;53.590;10.054;2022-12-18T12:53:07;29.47;;;11.67;;
48823;SDS011;34640;53.590;10.054;2022-12-18T12:55:49;28.27;;;12.00;;
48823;SDS011;34640;53.590;10.054;2022-12-18T12:58:26;30.50;;;11.57;;
48823;SDS011;34640;53.590;10.054;2022-12-18T13:01:09;28.77;;;12.00;;
48823;SDS011;34640;53.590;10.054;2022-12-18T13:03:56;33.03;;;12.37;;
48823;SDS011;34640;53.590;10.054;2022-12-18T13:06:38;31.90;;;11.90;;
48823;SDS011;34640;53.590;10.054;2022-12-18T13:09:18;30.20;;;11.63;;
48823;SDS011;34640;53.590;10.054;2022-12-18T13:11:53;28.90;;;11.83;;
48823;SDS011;34640;53.590;10.054;2022-12-18T13:14:53;27.37;;;11.53;;
48823;SDS011;34640;53.590;10.054;2022-12-18T13:17:44;32.40;;;12.77;;
48823;SDS011;34640;53.590;10.054;2022-12-18T13:20:19;24.90;;;10.77;;
48823;SDS011;34640;53.590;10.054;2022-12-18T13:22:53;35.93;;;13.50;;
48823;SDS011;34640;53.590;10.054;2022-12-18T13:25:32;33.33;;;12.53;;
48823;SDS011;34640;53.590;10.054;2022-12-18T13:28:12;31.00;;;12.73;;
48823;SDS011;34640;53.590;10.054;2022-12-18T13:30:48;27.70;;;11.80;;
48823;SDS011;34640;53.590;10.054;2022-12-18T13:33:38;33.60;;;13.10;;
48823;SDS011;34640;53.590;10.054;2022-12-18T13:36:34;34.97;;;12.70;;
48823;SDS011;34640;53.590;10.054;2022-12-18T13:39:09;33.23;;;13.57;;
48823;SDS011;34640;53.590;10.054;2022-12-18T13:41:44;31.87;;;12.47;;
48823;SDS011;34640;53.590;10.054;2022-12-18T13:44:32;36.37;;;13.93;;
48823;SDS011;34640;53.590;10.054;2022-12-18T13:47:26;33.20;;;12.43;;
48823;SDS011;34640;53.590;10.054;2022-12-18T13:50:09;37.53;;;13.90;;
48823;SDS011;34640;53.590;10.054;2022-12-18T13:52:52;34.57;;;12.13;;
48823;SDS011;34640;53.590;10.054;2022-12-18T13:55:26;39.30;;;13.77;;
48823;SDS011;34640;53.590;10.054;2022-12-18T13:58:03;39.80;;;14.07;;
48823;SDS011;34640;53.590;10.054;2022-12-18T14:00:40;33.40;;;13.20;;
48823;SDS011;34640;53.590;10.054;2022-12-18T14:03:21;38.33;;;13.87;;
48823;SDS011;34640;53.590;10.054;2022-12-18T14:06:02;35.23;;;12.90;;
48823;SDS011;34640;53.590;10.054;2022-12-18T14:08:39;31.83;;;12.37;;
48823;SDS011;34640;53.590;10.054;2022-12-18T14:11:18;39.40;;;13.03;;
48823;SDS011;34640;53.590;10.054;2022-12-18T14:13:58;36.33;;;13.30;;
48823;SDS011;34640;53.590;10.054;2022-12-18T14:16:33;36.73;;;13.43;;
48823;SDS011;34640;53.590;10.054;2022-12-18T14:19:08;34.83;;;13.63;;
48823;SDS011;34640;53.590;10.054;2022-12-18T14:21:47;41.80;;;13.67;;
48823;SDS011;34640;53.590;10.054;2022-12-18T14:24:22;37.97;;;14.17;;
48823;SDS011;34640;53.590;10.054;2022-12-18T14:26:57;37.10;;;14.27;;
48823;SDS011;34640;53.590;10.054;2022-12-18T14:29:52;37.33;;;12.63;;
48823;SDS011;34640;53.590;10.054;2022-12-18T14:32:27;46.33;;;14.50;;
48823;SDS011;34640;53.590;10.054;2022-12-18T14:35:12;37.53;;;13.53;;
48823;SDS011;34640;53.590;10.054;2022-12-18T14:37:47;36.23;;;13.73;;
48823;SDS011;34640;53.590;10.054;2022-12-18T14:40:20;39.50;;;14.67;;
48823;SDS011;34640;53.590;10.054;2022-12-18T14:42:54;40.47;;;14.27;;
48823;SDS011;34640;53.590;10.054;2022-12-18T14:45:32;41.33;;;14.83;;
48823;SDS011;34640;53.590;10.054;2022-12-18T14:48:16;42.10;;;15.00;;
48823;SDS011;34640;53.590;10.054;2022-12-18T14:50:55;38.83;;;14.43;;
48823;SDS011;34640;53.590;10.054;2022-12-18T14:53:33;40.20;;;15.13;;
48823;SDS011;34640;53.590;10.054;2022-12-18T14:56:14;43.67;;;16.37;;
48823;SDS011;34640;53.590;10.054;2022-12-18T14:58:51;43.90;;;15.37;;
48823;SDS011;34640;53.590;10.054;2022-12-18T15:01:29;51.20;;;17.10;;
48823;SDS011;34640;53.590;10.054;2022-12-18T15:04:25;47.83;;;17.67;;
48823;SDS011;34640;53.590;10.054;2022-12-18T15:07:08;48.20;;;15.60;;
48823;SDS011;34640;53.590;10.054;2022-12-18T15:10:01;49.47;;;16.00;;
48823;SDS011;34640;53.590;10.054;2022-12-18T15:12:39;47.40;;;16.60;;
48823;SDS011;34640;53.590;10.054;2022-12-18T15:18:18;40.10;;;14.00;;